Terminal Aerodrome Forecast
Issued by NWS

Home | Current Version | Previous Version | Text Only | Print | Product List | Glossary On
Versions: 1 2 3 4 5 6 7 8 9 10 11 12 13 14 15
000
FTUS45 KABQ 032000 AAA
TAFGUP
TAF AMD
KGUP 032051Z 0321/0418 23015G22KT P6SM VCSH SCT035 SCT070
      TEMPO 0321/0401 27012KT BKN035 BKN070
     FM040200 23006KT P6SM SCT025 BKN060
     FM041200 32008KT P6SM FEW015 SCT070
     FM041700 31015G22KT P6SM FEW030 SCT070=

USA.gov is the U.S. government's official web portal to all federal, state and local government web resources and services.